Check out our new PWSWeather beta!
PWSweather.com
Personal Weather Stations
Station Observations
IDALMACI22
Prvic LukaHR

Prvic LukaHR

Lat: 43.72542191, Lon: 15.7968483

Elevation: 20

Station Type: ws 2300

Latest ConditionsUpdated 10:50:03 AM GMT+01:01 Wednesday, Feb 26, 2020
Currently Today's Max Today's Min Today's Average
Temperature 60.1°F15.6°C 60.1°F15.6°C 55.2°F12.9°C 56.6°F13.7°C
Dew Point 49.5°F9.7°C 51.2°F10.7°C 48.8°F9.3°C 50.3°F10.2°C
Winds 6.0 mph SE9.7 kmh SE 15.4 mph -24.8 kmh - - 7.1 mph 11.4 kmh
Wind Gusts 11.2 mph18.0 kmh 15.4 mph24.8 kmh - -
Humidity 66% 83% 66% 80%
Pressure 29.47 in998.0 mb 29.62 in1003.0 mb 29.47 in998.0 mb -
Hour Temp Dew Point Humidity Winds Wind Gusts Pressure Precip Precip Rate Daily Precip Total
10:50 AM 60.1°F15.6°C 49.5°F9.7°C 66% 6.0 mph SE9.7 kmh SE 11.2 mph18.0 kmh 29.47 in998.0 mb 0.00 in0.0 mm 0.00 in0.0 mm 0.00 in0.0 mm
10:40 AM 59.9°F15.5°C 49.8°F9.9°C 69% 8.3 mph SE13.4 kmh SE 12.5 mph20.1 kmh 29.47 in998.0 mb 0.00 in0.0 mm 0.00 in0.0 mm 0.00 in0.0 mm
10:30 AM 59.4°F15.2°C 49.6°F9.8°C 70% 9.6 mph SE15.4 kmh SE 9.6 mph15.4 kmh 29.48 in998.3 mb 0.00 in0.0 mm 0.00 in0.0 mm 0.00 in0.0 mm
10:20 AM 58.5°F14.7°C 50.2°F10.1°C 72% 4.5 mph SSE7.2 kmh SSE 10.3 mph16.6 kmh 29.49 in998.6 mb 0.00 in0.0 mm 0.00 in0.0 mm 0.00 in0.0 mm
10:10 AM 57.9°F14.4°C 49.6°F9.8°C 74% 10.3 mph S16.6 kmh S 10.3 mph16.6 kmh 29.49 in998.6 mb 0.00 in0.0 mm 0.00 in0.0 mm 0.00 in0.0 mm
10:00 AM 57.9°F14.4°C 50.0°F10.0°C 75% 7.2 mph S11.6 kmh S 8.7 mph14.0 kmh 29.50 in999.0 mb 0.00 in0.0 mm 0.00 in0.0 mm 0.00 in0.0 mm
09:50 AM 57.9°F14.4°C 50.0°F10.0°C 75% 8.7 mph SSE14.0 kmh SSE 8.7 mph14.0 kmh 29.50 in999.0 mb 0.00 in0.0 mm 0.00 in0.0 mm 0.00 in0.0 mm
09:40 AM 58.1°F14.5°C 49.8°F9.9°C 74% 6.3 mph SE10.1 kmh SE 13.0 mph20.9 kmh 29.50 in999.0 mb 0.00 in0.0 mm 0.00 in0.0 mm 0.00 in0.0 mm
09:30 AM 58.5°F14.7°C 49.8°F9.9°C 73% 9.2 mph SSE14.8 kmh SSE 11.2 mph18.0 kmh 29.50 in999.0 mb 0.00 in0.0 mm 0.00 in0.0 mm 0.00 in0.0 mm
09:20 AM 58.6°F14.8°C 50.0°F10.0°C 73% 11.2 mph SE18.0 kmh SE 11.2 mph18.0 kmh 29.50 in999.0 mb 0.00 in0.0 mm 0.00 in0.0 mm 0.00 in0.0 mm
09:10 AM 58.1°F14.5°C 49.8°F9.9°C 74% 4.9 mph SE7.9 kmh SE 9.8 mph15.8 kmh 29.51 in999.3 mb 0.00 in0.0 mm 0.00 in0.0 mm 0.00 in0.0 mm
09:00 AM 57.7°F14.3°C 50.2°F10.1°C 76% 9.8 mph SE15.8 kmh SE 10.5 mph16.9 kmh 29.50 in999.0 mb 0.00 in0.0 mm 0.00 in0.0 mm 0.00 in0.0 mm
08:50 AM 57.4°F14.1°C 50.2°F10.1°C 77% 10.5 mph SSE16.9 kmh SSE 10.5 mph16.9 kmh 29.50 in999.0 mb 0.00 in0.0 mm 0.00 in0.0 mm 0.00 in0.0 mm
08:40 AM 57.0°F13.9°C 50.2°F10.1°C 78% 7.6 mph SE12.2 kmh SE 8.5 mph13.7 kmh 29.50 in999.0 mb 0.00 in0.0 mm 0.00 in0.0 mm 0.00 in0.0 mm
08:30 AM 56.8°F13.8°C 50.4°F10.2°C 79% 7.6 mph SE12.2 kmh SE 8.5 mph13.7 kmh 29.51 in999.3 mb 0.00 in0.0 mm 0.00 in0.0 mm 0.00 in0.0 mm
08:20 AM 56.5°F13.6°C 50.4°F10.2°C 80% 3.6 mph SE5.8 kmh SE 3.8 mph6.1 kmh 29.51 in999.3 mb 0.00 in0.0 mm 0.00 in0.0 mm 0.00 in0.0 mm
08:10 AM 56.1°F13.4°C 50.3°F10.2°C 81% 3.1 mph SSE5.0 kmh SSE 5.4 mph8.7 kmh 29.51 in999.3 mb 0.00 in0.0 mm 0.00 in0.0 mm 0.00 in0.0 mm
08:00 AM 55.9°F13.3°C 50.5°F10.3°C 82% 5.4 mph SE8.7 kmh SE 6.5 mph10.5 kmh 29.51 in999.3 mb 0.00 in0.0 mm 0.00 in0.0 mm 0.00 in0.0 mm
07:50 AM 55.8°F13.2°C 50.3°F10.2°C 82% 2.5 mph SE4.0 kmh SE 6.7 mph10.8 kmh 29.51 in999.3 mb 0.00 in0.0 mm 0.00 in0.0 mm 0.00 in0.0 mm
07:40 AM 55.2°F12.9°C 49.7°F9.8°C 82% 4.5 mph SE7.2 kmh SE 8.3 mph13.4 kmh 29.51 in999.3 mb 0.00 in0.0 mm 0.00 in0.0 mm 0.00 in0.0 mm
07:30 AM 55.2°F12.9°C 50.1°F10.1°C 83% 8.3 mph SE13.4 kmh SE 8.3 mph13.4 kmh 29.50 in999.0 mb 0.00 in0.0 mm 0.00 in0.0 mm 0.00 in0.0 mm
07:20 AM 55.2°F12.9°C 50.1°F10.1°C 83% 5.4 mph SE8.7 kmh SE 6.5 mph10.5 kmh 29.50 in999.0 mb 0.00 in0.0 mm 0.00 in0.0 mm 0.00 in0.0 mm
07:10 AM 55.2°F12.9°C 50.1°F10.1°C 83% 3.8 mph SE6.1 kmh SE 7.6 mph12.2 kmh 29.51 in999.3 mb 0.00 in0.0 mm 0.00 in0.0 mm 0.00 in0.0 mm
07:00 AM 55.2°F12.9°C 50.1°F10.1°C 83% 6.0 mph SE9.7 kmh SE 11.4 mph18.3 kmh 29.50 in999.0 mb 0.00 in0.0 mm 0.00 in0.0 mm 0.00 in0.0 mm
06:50 AM 55.4°F13.0°C 50.3°F10.2°C 83% 10.5 mph SE16.9 kmh SE 12.3 mph19.8 kmh 29.50 in999.0 mb 0.00 in0.0 mm 0.00 in0.0 mm 0.00 in0.0 mm
06:40 AM 55.4°F13.0°C 50.3°F10.2°C 83% 12.3 mph SE19.8 kmh SE 12.3 mph19.8 kmh 29.50 in999.0 mb 0.00 in0.0 mm 0.00 in0.0 mm 0.00 in0.0 mm
06:30 AM 55.6°F13.1°C 50.4°F10.2°C 83% 10.7 mph SE17.2 kmh SE 10.7 mph17.2 kmh 29.50 in999.0 mb 0.00 in0.0 mm 0.00 in0.0 mm 0.00 in0.0 mm
06:20 AM 55.6°F13.1°C 50.4°F10.2°C 83% 6.9 mph SE11.1 kmh SE 6.9 mph11.1 kmh 29.50 in999.0 mb 0.00 in0.0 mm 0.00 in0.0 mm 0.00 in0.0 mm
06:10 AM 55.6°F13.1°C 50.4°F10.2°C 83% 6.7 mph S10.8 kmh S 11.2 mph18.0 kmh 29.50 in999.0 mb 0.00 in0.0 mm 0.00 in0.0 mm 0.00 in0.0 mm
06:00 AM 55.8°F13.2°C 50.6°F10.3°C 83% 8.9 mph SE14.3 kmh SE 9.8 mph15.8 kmh 29.49 in998.6 mb 0.00 in0.0 mm 0.00 in0.0 mm 0.00 in0.0 mm
05:50 AM 55.9°F13.3°C 50.8°F10.4°C 83% 9.8 mph SE15.8 kmh SE 9.8 mph15.8 kmh 29.50 in999.0 mb 0.00 in0.0 mm 0.00 in0.0 mm 0.00 in0.0 mm
05:40 AM 56.1°F13.4°C 51.0°F10.6°C 83% 8.5 mph SE13.7 kmh SE 10.1 mph16.3 kmh 29.50 in999.0 mb 0.00 in0.0 mm 0.00 in0.0 mm 0.00 in0.0 mm
05:30 AM 56.1°F13.4°C 50.6°F10.3°C 82% 10.1 mph ESE16.3 kmh ESE 11.0 mph17.7 kmh 29.51 in999.3 mb 0.00 in0.0 mm 0.00 in0.0 mm 0.00 in0.0 mm
05:20 AM 56.3°F13.5°C 50.8°F10.4°C 82% 8.5 mph SE13.7 kmh SE 11.0 mph17.7 kmh 29.51 in999.3 mb 0.00 in0.0 mm 0.00 in0.0 mm 0.00 in0.0 mm
05:10 AM 56.3°F13.5°C 51.2°F10.7°C 83% 9.4 mph SE15.1 kmh SE 11.2 mph18.0 kmh 29.51 in999.3 mb 0.00 in0.0 mm 0.00 in0.0 mm 0.00 in0.0 mm
05:00 AM 56.1°F13.4°C 51.0°F10.6°C 83% 5.8 mph SE9.3 kmh SE 5.8 mph9.3 kmh 29.52 in999.7 mb 0.00 in0.0 mm 0.00 in0.0 mm 0.00 in0.0 mm
04:50 AM 56.3°F13.5°C 51.2°F10.7°C 83% 4.3 mph ESE6.9 kmh ESE 6.5 mph10.5 kmh 29.52 in999.7 mb 0.00 in0.0 mm 0.00 in0.0 mm 0.00 in0.0 mm
04:40 AM 56.5°F13.6°C 51.0°F10.6°C 82% 6.5 mph SE10.5 kmh SE 8.9 mph14.3 kmh 29.52 in999.7 mb 0.00 in0.0 mm 0.00 in0.0 mm 0.00 in0.0 mm
04:30 AM 56.5°F13.6°C 51.0°F10.6°C 82% 8.9 mph SE14.3 kmh SE 8.9 mph14.3 kmh 29.52 in999.7 mb 0.00 in0.0 mm 0.00 in0.0 mm 0.00 in0.0 mm
04:20 AM 56.5°F13.6°C 51.0°F10.6°C 82% 7.8 mph ESE12.6 kmh ESE 9.2 mph14.8 kmh 29.52 in999.7 mb 0.00 in0.0 mm 0.00 in0.0 mm 0.00 in0.0 mm
04:10 AM 56.5°F13.6°C 51.0°F10.6°C 82% 7.2 mph SE11.6 kmh SE 11.6 mph18.7 kmh 29.52 in999.7 mb 0.00 in0.0 mm 0.00 in0.0 mm 0.00 in0.0 mm
04:00 AM 56.7°F13.7°C 51.2°F10.7°C 82% 11.6 mph SSE18.7 kmh SSE 15.4 mph24.8 kmh 29.51 in999.3 mb 0.00 in0.0 mm 0.00 in0.0 mm 0.00 in0.0 mm
03:50 AM 56.8°F13.8°C 51.0°F10.6°C 81% 9.2 mph S14.8 kmh S 15.4 mph24.8 kmh 29.52 in999.7 mb 0.00 in0.0 mm 0.00 in0.0 mm 0.00 in0.0 mm
03:40 AM 56.8°F13.8°C 51.0°F10.6°C 81% 15.4 mph SE24.8 kmh SE 15.4 mph24.8 kmh 29.53 in1000.0 mb 0.00 in0.0 mm 0.00 in0.0 mm 0.00 in0.0 mm
03:30 AM 56.8°F13.8°C 51.0°F10.6°C 81% 9.6 mph ESE15.4 kmh ESE 9.8 mph15.8 kmh 29.53 in1000.0 mb 0.00 in0.0 mm 0.00 in0.0 mm 0.00 in0.0 mm
03:20 AM 56.8°F13.8°C 50.7°F10.4°C 80% 3.8 mph SSE6.1 kmh SSE 13.4 mph21.6 kmh 29.53 in1000.0 mb 0.00 in0.0 mm 0.00 in0.0 mm 0.00 in0.0 mm
03:10 AM 56.8°F13.8°C 50.7°F10.4°C 80% 9.2 mph SE14.8 kmh SE 9.2 mph14.8 kmh 29.54 in1000.3 mb 0.00 in0.0 mm 0.00 in0.0 mm 0.00 in0.0 mm
03:00 AM 56.8°F13.8°C 50.7°F10.4°C 80% 8.5 mph SSE13.7 kmh SSE 13.0 mph20.9 kmh 29.54 in1000.3 mb 0.00 in0.0 mm 0.00 in0.0 mm 0.00 in0.0 mm
02:50 AM 56.8°F13.8°C 50.7°F10.4°C 80% 13.0 mph SSE20.9 kmh SSE 13.0 mph20.9 kmh 29.55 in1000.7 mb 0.00 in0.0 mm 0.00 in0.0 mm 0.00 in0.0 mm
02:40 AM 56.8°F13.8°C 50.7°F10.4°C 80% 6.3 mph SE10.1 kmh SE 6.7 mph10.8 kmh 29.55 in1000.7 mb 0.00 in0.0 mm 0.00 in0.0 mm 0.00 in0.0 mm
02:30 AM 56.5°F13.6°C 50.4°F10.2°C 80% 3.6 mph SE5.8 kmh SE 3.6 mph5.8 kmh 29.55 in1000.7 mb 0.00 in0.0 mm 0.00 in0.0 mm 0.00 in0.0 mm
02:20 AM 56.3°F13.5°C 50.2°F10.1°C 80% 2.9 mph SSE4.7 kmh SSE 4.3 mph6.9 kmh 29.56 in1001.0 mb 0.00 in0.0 mm 0.00 in0.0 mm 0.00 in0.0 mm
02:10 AM 56.5°F13.6°C 50.4°F10.2°C 80% 3.1 mph SE5.0 kmh SE 5.1 mph8.2 kmh 29.56 in1001.0 mb 0.00 in0.0 mm 0.00 in0.0 mm 0.00 in0.0 mm
02:00 AM 56.3°F13.5°C 50.2°F10.1°C 80% 5.1 mph SE8.2 kmh SE 6.5 mph10.5 kmh 29.57 in1001.4 mb 0.00 in0.0 mm 0.00 in0.0 mm 0.00 in0.0 mm
01:50 AM 56.3°F13.5°C 50.2°F10.1°C 80% 3.4 mph SE5.5 kmh SE 7.2 mph11.6 kmh 29.57 in1001.4 mb 0.00 in0.0 mm 0.00 in0.0 mm 0.00 in0.0 mm
01:40 AM 56.3°F13.5°C 50.2°F10.1°C 80% 7.2 mph SE11.6 kmh SE 9.6 mph15.4 kmh 29.57 in1001.4 mb 0.00 in0.0 mm 0.00 in0.0 mm 0.00 in0.0 mm
01:30 AM 56.1°F13.4°C 50.0°F10.0°C 80% 4.0 mph SE6.4 kmh SE 8.1 mph13.0 kmh 29.57 in1001.4 mb 0.00 in0.0 mm 0.00 in0.0 mm 0.00 in0.0 mm
01:20 AM 56.1°F13.4°C 50.0°F10.0°C 80% 7.4 mph SE11.9 kmh SE 7.4 mph11.9 kmh 29.58 in1001.7 mb 0.00 in0.0 mm 0.00 in0.0 mm 0.00 in0.0 mm
01:10 AM 55.8°F13.2°C 49.6°F9.8°C 80% 5.1 mph SE8.2 kmh SE 7.8 mph12.6 kmh 29.58 in1001.7 mb 0.00 in0.0 mm 0.00 in0.0 mm 0.00 in0.0 mm
01:00 AM 55.4°F13.0°C 48.9°F9.4°C 79% 6.0 mph SE9.7 kmh SE 7.2 mph11.6 kmh 29.59 in1002.0 mb 0.00 in0.0 mm 0.00 in0.0 mm 0.00 in0.0 mm
12:50 AM 55.2°F12.9°C 48.8°F9.3°C 79% 4.0 mph SE6.4 kmh SE 4.0 mph6.4 kmh 29.59 in1002.0 mb 0.00 in0.0 mm 0.00 in0.0 mm 0.00 in0.0 mm
12:40 AM 55.4°F13.0°C 48.9°F9.4°C 79% Calm Calm 2.2 mph3.5 kmh 29.60 in1002.4 mb 0.00 in0.0 mm 0.00 in0.0 mm 0.00 in0.0 mm
12:30 AM 55.8°F13.2°C 49.6°F9.8°C 80% 2.2 mph SE3.5 kmh SE 8.9 mph14.3 kmh 29.60 in1002.4 mb 0.00 in0.0 mm 0.00 in0.0 mm 0.00 in0.0 mm
12:20 AM 55.9°F13.3°C 49.8°F9.9°C 80% 8.9 mph SE14.3 kmh SE 8.9 mph14.3 kmh 29.61 in1002.7 mb 0.00 in0.0 mm 0.00 in0.0 mm 0.00 in0.0 mm
12:10 AM 55.9°F13.3°C 49.8°F9.9°C 80% 4.7 mph SE7.6 kmh SE 7.8 mph12.6 kmh 29.61 in1002.7 mb 0.00 in0.0 mm 0.00 in0.0 mm 0.00 in0.0 mm
12:00 AM 55.9°F13.3°C 50.1°F10.1°C 81% 7.8 mph SE12.6 kmh SE 10.7 mph17.2 kmh 29.62 in1003.0 mb 0.00 in0.0 mm 0.00 in0.0 mm 0.00 in0.0 mm